Time;durP1;ratioP1;P1;durP2;ratioP2;P2;SDS_P1;SDS_P2;PMS_P1;PMS_P2;Temp;Humidity;BMP_temperature;BMP_pressure;BME280_temperature;BME280_humidity;BME280_pressure;Samples;Min_cycle;Max_cycle;Signal;HPM_P1;HPM_P2
2021/05/11 04:02:26;;;;;;;3.40;1.90;;;15.50;96.30;;;;;;4967186;23;20511;-77
2021/05/11 04:04:51;;;;;;;6.97;2.23;;;15.60;96.30;;;;;;4893699;29;20425;-74
2021/05/11 04:07:17;;;;;;;2.57;1.77;;;16.00;96.30;;;;;;4897159;29;20185;-75
2021/05/11 04:09:47;;;;;;;5.87;1.80;;;16.70;96.30;;;;;;4900193;29;20165;-75
2021/05/11 04:17:22;;;;;;;4.60;2.20;;;18.70;96.00;;;;;;4935231;29;20798;-84
2021/05/11 04:19:48;;;;;;;3.73;1.60;;;19.50;91.70;;;;;;4934562;29;20183;-83
2021/05/11 04:22:13;;;;;;;4.40;2.07;;;20.00;89.60;;;;;;4937340;29;20183;-84
2021/05/11 04:24:38;;;;;;;4.53;2.10;;;20.30;90.90;;;;;;4937004;29;20238;-83
2021/05/11 04:27:04;;;;;;;4.03;1.90;;;20.60;88.60;;;;;;4916664;29;20270;-84
2021/05/11 04:29:30;;;;;;;6.07;3.13;;;20.90;86.00;;;;;;4917477;29;20267;-83
2021/05/11 04:31:55;;;;;;;8.97;2.50;;;21.10;83.70;;;;;;4917974;29;20178;-83
2021/05/11 04:34:21;;;;;;;14.30;2.80;;;21.80;81.50;;;;;;4917589;29;20587;-83
2021/05/11 04:36:46;;;;;;;4.03;2.10;;;21.70;81.80;;;;;;4916851;29;20193;-83
2021/05/11 04:39:12;;;;;;;14.37;3.40;;;21.10;83.70;;;;;;4916497;29;20173;-84
2021/05/11 04:41:37;;;;;;;8.57;2.40;;;20.90;84.00;;;;;;4916095;29;20251;-84
2021/05/11 04:44:04;;;;;;;4.37;2.57;;;20.70;84.00;;;;;;4917375;29;20180;-84
2021/05/11 04:46:55;;;;;;;4.03;2.27;;;20.30;86.40;;;;;;4916623;29;20716;-83
2021/05/11 04:49:20;;;;;;;3.67;2.90;;;20.00;89.10;;;;;;4916095;29;20484;-84
2021/05/11 04:51:46;;;;;;;7.87;3.90;;;19.90;92.20;;;;;;4912391;29;21005;-84
2021/05/11 04:54:12;;;;;;;6.87;3.40;;;20.10;89.90;;;;;;4898648;29;20596;-83
2021/05/11 04:56:38;;;;;;;4.17;2.00;;;20.30;87.40;;;;;;4901686;29;20661;-84
2021/05/11 04:59:03;;;;;;;9.50;3.33;;;20.70;85.50;;;;;;4898036;29;20408;-84
2021/05/11 05:01:29;;;;;;;9.50;3.80;;;21.00;87.30;;;;;;4896770;29;20239;-84
2021/05/11 05:03:57;;;;;;;30.33;2.43;;;21.00;83.90;;;;;;4897830;29;20583;-83
2021/05/11 05:06:23;;;;;;;4.60;2.70;;;21.30;83.20;;;;;;4897292;29;20272;-83
2021/05/11 05:08:48;;;;;;;25.60;14.80;;;22.10;82.70;;;;;;4896478;29;20634;-84
2021/05/11 05:11:17;;;;;;;3.90;2.40;;;22.30;79.90;;;;;;4896466;29;20176;-84
2021/05/11 05:13:42;;;;;;;5.53;2.40;;;22.40;79.70;;;;;;4896740;29;20260;-84
2021/05/11 05:16:07;;;;;;;5.47;2.80;;;21.90;81.00;;;;;;4897030;29;21204;-83
2021/05/11 05:18:33;;;;;;;13.83;6.17;;;21.30;84.40;;;;;;4895726;29;20180;-82
2021/05/11 05:20:59;;;;;;;4.67;2.90;;;21.00;84.60;;;;;;4895693;29;20240;-83
2021/05/11 05:23:34;;;;;;;6.43;2.30;;;20.60;86.30;;;;;;4896499;29;20183;-83
2021/05/11 05:26:08;;;;;;;8.50;2.27;;;20.60;86.90;;;;;;4911217;29;20204;-83
2021/05/11 05:28:37;;;;;;;6.13;3.20;;;20.40;86.30;;;;;;4917815;29;20416;-85
2021/05/11 05:31:03;;;;;;;4.40;2.30;;;20.20;87.70;;;;;;4917337;29;20428;-85
2021/05/11 05:33:33;;;;;;;4.47;2.87;;;20.20;87.30;;;;;;4915729;29;20427;-85
2021/05/11 05:35:59;;;;;;;8.60;2.80;;;21.10;85.30;;;;;;4915194;29;20211;-84
2021/05/11 05:38:27;;;;;;;6.17;2.43;;;21.50;84.60;;;;;;4916158;29;20420;-85
2021/05/11 05:41:01;;;;;;;7.73;3.40;;;21.90;82.00;;;;;;4915617;29;20208;-86
2021/05/11 05:43:27;;;;;;;6.20;2.77;;;22.00;81.70;;;;;;4917638;29;20439;-86
2021/05/11 05:45:53;;;;;;;4.07;3.20;;;22.10;81.90;;;;;;4916003;29;20440;-86
2021/05/11 05:48:19;;;;;;;8.33;2.87;;;22.70;80.30;;;;;;4914848;29;20176;-86
2021/05/11 05:50:46;;;;;;;3.57;2.40;;;23.20;83.10;;;;;;4917601;29;20412;-87
2021/05/11 05:53:14;;;;;;;3.60;2.80;;;22.70;81.10;;;;;;4918574;29;20760;-87
2021/05/11 05:55:41;;;;;;;3.23;2.00;;;22.40;82.00;;;;;;4921639;29;20444;-86
2021/05/11 05:58:07;;;;;;;6.53;3.27;;;22.60;83.20;;;;;;4920020;29;20525;-87
2021/05/11 06:00:32;;;;;;;8.20;3.80;;;23.00;82.70;;;;;;4919231;29;20899;-84
2021/05/11 06:03:18;;;;;;;10.43;3.20;;;23.40;80.90;;;;;;4914758;29;20176;-85
2021/05/11 06:05:44;;;;;;;4.27;2.37;;;23.40;79.40;;;;;;4895923;29;20204;-85
2021/05/11 06:08:09;;;;;;;7.50;2.77;;;23.10;79.80;;;;;;4895254;29;20475;-85
2021/05/11 06:10:35;;;;;;;5.23;2.50;;;23.20;78.40;;;;;;4897812;29;20183;-85
2021/05/11 06:13:13;;;;;;;4.77;2.40;;;23.00;79.10;;;;;;4897212;29;20187;-85
2021/05/11 06:18:22;;;;;;;5.33;2.70;;;23.90;77.20;;;;;;4897079;29;20452;-86
2021/05/11 06:20:48;;;;;;;4.80;3.00;;;24.40;78.00;;;;;;4896945;29;20452;-85
2021/05/11 06:23:13;;;;;;;4.17;2.60;;;25.50;75.10;;;;;;4895966;29;20172;-85
2021/05/11 06:25:43;;;;;;;3.60;2.40;;;26.30;72.60;;;;;;4895811;29;20200;-85
2021/05/11 06:28:09;;;;;;;5.40;2.43;;;27.50;68.00;;;;;;4896226;29;20153;-85
2021/05/11 06:30:35;;;;;;;8.27;2.33;;;28.30;66.70;;;;;;4910838;29;20912;-86
2021/05/11 06:33:00;;;;;;;6.80;2.97;;;29.60;65.50;;;;;;4919710;29;20179;-86
2021/05/11 06:35:27;;;;;;;3.03;2.03;;;29.40;67.30;;;;;;4919465;29;20207;-86
2021/05/11 06:37:59;;;;;;;5.03;2.40;;;29.70;67.20;;;;;;4919270;29;20167;-86
2021/05/11 06:40:26;;;;;;;12.05;3.33;;;29.00;65.00;;;;;;4919768;29;20211;-86
2021/05/11 06:42:52;;;;;;;7.28;2.30;;;30.70;60.60;;;;;;4918897;29;20195;-86
2021/05/11 06:55:21;;;;;;;5.43;2.53;;;29.60;62.20;;;;;;4919334;29;20274;-86
2021/05/11 06:57:47;;;;;;;12.80;2.63;;;28.40;63.70;;;;;;4920587;29;20168;-85
2021/05/11 07:00:14;;;;;;;4.33;2.40;;;28.30;66.90;;;;;;4903846;29;20234;-86
2021/05/11 07:02:39;;;;;;;4.10;2.40;;;28.60;64.20;;;;;;4899432;29;20432;-86
2021/05/11 07:05:05;;;;;;;7.40;2.43;;;28.60;63.80;;;;;;4909012;29;20442;-85
2021/05/11 07:07:32;;;;;;;6.80;2.40;;;28.10;65.50;;;;;;4918650;29;20184;-86
2021/05/11 07:10:08;;;;;;;5.37;2.40;;;27.80;66.00;;;;;;4917929;29;20184;-85
2021/05/11 07:15:17;;;;;;;4.17;2.20;;;28.40;69.80;;;;;;4919184;29;20479;-85
2021/05/11 07:17:43;;;;;;;6.87;2.43;;;28.10;71.60;;;;;;4917253;29;20427;-85
2021/05/11 07:20:09;;;;;;;3.93;2.40;;;28.10;73.30;;;;;;4917632;29;20215;-86
2021/05/11 07:22:35;;;;;;;5.33;2.50;;;28.20;67.40;;;;;;4918897;29;20179;-85
2021/05/11 07:25:00;;;;;;;9.90;2.67;;;28.50;69.30;;;;;;4918039;29;20436;-86
2021/05/11 07:30:12;;;;;;;3.63;2.30;;;28.90;70.70;;;;;;4919896;29;20585;-86
2021/05/11 07:32:39;;;;;;;5.20;2.50;;;29.60;64.90;;;;;;4918038;29;20167;-86
2021/05/11 07:35:05;;;;;;;7.73;2.60;;;29.70;63.90;;;;;;4918996;29;20432;-85
2021/05/11 07:37:31;;;;;;;3.57;2.60;;;28.70;64.80;;;;;;4915249;29;20790;-85
2021/05/11 07:39:57;;;;;;;4.37;2.47;;;29.20;65.40;;;;;;4933222;29;20218;-85
2021/05/11 07:42:22;;;;;;;8.40;3.47;;;29.30;66.50;;;;;;4917553;29;20179;-86
2021/05/11 07:44:51;;;;;;;9.03;2.63;;;29.50;68.00;;;;;;4918526;29;20408;-85
2021/05/11 07:47:23;;;;;;;3.23;2.10;;;29.70;68.50;;;;;;4918165;29;20633;-85
2021/05/11 08:03:31;;;;;;;8.47;2.70;;;27.80;73.90;;;;;;4918963;29;20448;-85
2021/05/11 08:16:39;;;;;;;5.97;2.87;;;28.20;67.90;;;;;;4919156;29;20566;-85
2021/05/11 08:22:15;;;;;;;7.77;3.10;;;29.60;68.50;;;;;;4901052;29;20471;-85
2021/05/11 08:29:57;;;;;;;7.27;3.97;;;26.80;73.30;;;;;;4921514;29;20410;-85
2021/05/11 08:32:23;;;;;;;5.17;3.70;;;26.30;72.00;;;;;;4913333;29;20421;-85
2021/05/11 08:34:49;;;;;;;9.40;3.60;;;26.40;74.10;;;;;;4899306;29;20183;-85
2021/05/11 08:37:17;;;;;;;12.70;3.90;;;26.80;73.00;;;;;;4897226;29;20181;-85
2021/05/11 08:39:44;;;;;;;10.00;3.40;;;26.60;77.50;;;;;;4911126;29;20459;-85
2021/05/11 08:42:11;;;;;;;7.57;3.50;;;26.60;78.20;;;;;;4917125;29;20428;-85
2021/05/11 08:44:36;;;;;;;7.03;3.60;;;26.60;76.00;;;;;;4916206;29;20427;-83
2021/05/11 08:47:02;;;;;;;7.37;3.57;;;26.90;77.20;;;;;;4917067;29;20434;-85
2021/05/11 08:49:27;;;;;;;10.47;4.17;;;26.20;76.20;;;;;;4916171;29;20182;-85
2021/05/11 08:52:05;;;;;;;6.63;4.07;;;25.40;77.60;;;;;;4916434;29;20202;-85
2021/05/11 08:54:49;;;;;;;16.97;3.87;;;25.20;80.70;;;;;;4917082;29;20164;-85
2021/05/11 09:08:45;;;;;;;5.13;3.70;;;24.50;83.00;;;;;;4910206;29;20924;-84
2021/05/11 09:25:22;;;;;;;9.53;3.70;;;27.10;77.70;;;;;;4906727;29;20439;-85
2021/05/11 09:27:56;;;;;;;10.33;4.10;;;27.00;76.00;;;;;;4929024;29;20436;-84
2021/05/11 09:30:43;;;;;;;7.53;3.57;;;26.20;76.20;;;;;;4896522;29;20417;-85
2021/05/11 09:33:19;;;;;;;7.03;4.17;;;25.70;78.20;;;;;;4896591;29;20416;-85
2021/05/11 09:54:29;;;;;;;6.00;4.80;;;23.70;85.00;;;;;;4916629;29;20411;-84
2021/05/11 09:56:32;;;;;;;7.67;4.83;;;23.60;86.30;;;;;;4893418;29;20437;-84
2021/05/11 10:10:28;;;;;;;6.63;4.77;;;24.30;87.80;;;;;;4916317;29;20460;-84
2021/05/11 10:49:40;;;;;;;10.70;4.73;;;26.90;80.60;;;;;;4916028;29;20417;-86
2021/05/11 10:52:19;;;;;;;8.20;4.90;;;27.10;84.80;;;;;;4906800;29;20464;-85
2021/05/11 10:55:12;;;;;;;10.47;4.57;;;27.10;80.30;;;;;;4896553;29;20389;-86
2021/05/11 10:57:47;;;;;;;11.30;4.90;;;27.00;80.40;;;;;;4896253;29;20419;-86
2021/05/11 11:00:31;;;;;;;11.80;5.40;;;26.70;78.30;;;;;;4895514;29;20464;-86
2021/05/11 11:03:16;;;;;;;11.97;5.83;;;26.60;78.90;;;;;;4895554;29;20449;-86
2021/05/11 11:05:51;;;;;;;12.43;4.40;;;26.60;82.20;;;;;;4896639;29;20432;-86
2021/05/11 11:08:42;;;;;;;8.10;6.13;;;26.80;83.60;;;;;;4894796;29;20436;-86
2021/05/11 11:11:14;;;;;;;8.40;5.60;;;26.90;84.30;;;;;;4895624;29;20492;-86
2021/05/11 11:13:41;;;;;;;17.87;5.67;;;27.00;84.00;;;;;;4895530;29;20417;-86
2021/05/11 11:16:07;;;;;;;13.33;4.77;;;27.20;85.30;;;;;;4894482;29;20543;-86
2021/05/11 11:18:33;;;;;;;8.27;5.30;;;27.40;83.30;;;;;;4898400;29;20940;-86
2021/05/11 11:21:18;;;;;;;10.23;5.27;;;27.30;81.30;;;;;;4898581;29;20512;-86
2021/05/11 11:23:54;;;;;;;11.97;5.00;;;27.20;84.60;;;;;;4899979;29;20404;-86
2021/05/11 11:26:31;;;;;;;10.53;5.47;;;26.90;82.50;;;;;;4898367;29;20928;-86
2021/05/11 11:29:02;;;;;;;6.20;4.60;;;27.00;82.00;;;;;;4898917;29;20452;-86
2021/05/11 11:31:32;;;;;;;11.93;5.40;;;27.40;84.10;;;;;;4899864;29;20432;-86
2021/05/11 11:34:21;;;;;;;10.47;4.90;;;27.50;82.10;;;;;;4898620;29;20469;-86
2021/05/11 11:36:58;;;;;;;13.17;5.10;;;27.70;84.70;;;;;;4898005;29;20523;-86
2021/05/11 11:39:27;;;;;;;15.23;4.80;;;27.40;83.30;;;;;;4899713;29;20380;-86
2021/05/11 11:41:55;;;;;;;9.17;4.33;;;27.60;81.50;;;;;;4898310;29;20464;-86
2021/05/11 11:44:23;;;;;;;11.00;4.30;;;27.50;82.40;;;;;;4898377;29;20503;-86
2021/05/11 11:47:04;;;;;;;7.63;5.10;;;27.20;83.70;;;;;;4897589;29;20448;-86
2021/05/11 11:49:32;;;;;;;7.17;4.67;;;27.20;80.80;;;;;;4899553;29;20417;-86
2021/05/11 11:52:11;;;;;;;11.00;5.30;;;27.30;80.50;;;;;;4904048;29;20941;-85
2021/05/11 12:00:10;;;;;;;8.30;5.13;;;27.50;82.10;;;;;;4899392;29;21035;-86
2021/05/11 12:03:12;;;;;;;23.80;5.53;;;27.40;83.70;;;;;;4898489;29;20948;-86
2021/05/11 12:05:53;;;;;;;13.60;5.70;;;27.30;80.80;;;;;;4914310;29;20480;-86
2021/05/11 12:08:25;;;;;;;9.63;5.30;;;26.60;80.10;;;;;;4917586;29;20403;-86
2021/05/11 12:10:52;;;;;;;8.70;4.23;;;26.90;85.60;;;;;;4916708;29;20443;-86
2021/05/11 12:13:23;;;;;;;20.57;4.37;;;27.30;80.80;;;;;;4918002;29;20427;-86
2021/05/11 12:16:10;;;;;;;8.63;4.20;;;27.80;76.90;;;;;;4916669;29;20459;-85
2021/05/11 12:18:36;;;;;;;13.13;4.10;;;27.80;80.80;;;;;;4916735;29;20411;-86
2021/05/11 12:21:05;;;;;;;14.63;4.93;;;28.40;80.00;;;;;;4916531;29;20460;-86
2021/05/11 12:23:31;;;;;;;4.67;3.67;;;28.60;75.20;;;;;;4916527;29;21023;-86
2021/05/11 12:26:05;;;;;;;5.33;3.40;;;29.30;74.40;;;;;;4916548;29;20518;-86
2021/05/11 12:28:31;;;;;;;8.23;2.90;;;29.60;74.20;;;;;;4914770;29;20176;-86
2021/05/11 12:30:57;;;;;;;9.27;3.57;;;29.60;76.00;;;;;;4914054;29;20463;-86
2021/05/11 12:33:32;;;;;;;8.53;3.23;;;29.00;75.90;;;;;;4932481;29;20458;-86
2021/05/11 12:36:00;;;;;;;8.77;3.00;;;28.30;72.80;;;;;;4917522;29;20230;-86
2021/05/11 12:38:27;;;;;;;12.20;3.60;;;28.70;81.20;;;;;;4915770;29;20423;-86
2021/05/11 12:41:03;;;;;;;11.60;4.40;;;28.50;76.70;;;;;;4917316;29;20491;-86
2021/05/11 12:43:48;;;;;;;7.40;3.50;;;28.20;79.00;;;;;;4916235;29;20422;-86
2021/05/11 12:46:37;;;;;;;7.27;3.50;;;28.30;82.30;;;;;;4915531;29;20443;-86
2021/05/11 12:49:05;;;;;;;12.87;2.70;;;28.90;76.30;;;;;;4917359;29;20495;-86
2021/05/11 12:51:42;;;;;;;5.13;2.80;;;28.80;75.70;;;;;;4915774;29;20428;-86
2021/05/11 12:54:51;;;;;;;15.60;3.17;;;28.30;75.70;;;;;;4916022;29;20758;-86
2021/05/11 12:57:52;;;;;;;7.30;3.43;;;28.50;73.70;;;;;;4915510;29;20463;-86
2021/05/11 13:00:35;;;;;;;11.67;3.70;;;28.30;76.00;;;;;;4915880;29;20832;-86
2021/05/11 13:03:19;;;;;;;6.43;3.20;;;28.30;78.70;;;;;;4915718;29;20404;-86
2021/05/11 13:14:08;;;;;;;5.63;3.77;;;28.40;83.00;;;;;;4917221;29;20764;-86
2021/05/11 13:16:58;;;;;;;11.50;3.40;;;28.60;77.70;;;;;;4914940;29;20466;-86
2021/05/11 13:25:20;;;;;;;6.97;3.60;;;27.60;83.00;;;;;;4877115;29;20465;-84
2021/05/11 13:28:23;;;;;;;3.90;3.13;;;27.90;84.60;;;;;;4876516;29;20406;-84
2021/05/11 13:31:00;;;;;;;9.27;4.13;;;28.30;83.80;;;;;;4902942;29;21263;-84
2021/05/11 13:33:32;;;;;;;10.40;4.00;;;28.60;82.00;;;;;;4929042;29;20419;-84
2021/05/11 13:35:57;;;;;;;5.40;4.00;;;29.00;80.80;;;;;;4935019;29;20574;-84
2021/05/11 13:38:23;;;;;;;8.63;3.80;;;28.50;79.40;;;;;;4934371;29;20939;-84
2021/05/11 13:40:50;;;;;;;6.87;3.77;;;28.10;78.20;;;;;;4935434;29;20289;-84
2021/05/11 13:43:16;;;;;;;7.43;3.63;;;27.70;80.50;;;;;;4935874;29;20611;-84
2021/05/11 13:45:42;;;;;;;14.23;4.10;;;27.10;83.90;;;;;;4934540;29;20433;-84
2021/05/11 13:53:25;;;;;;;8.40;3.90;;;25.90;85.10;;;;;;4916942;29;20934;-85
2021/05/11 13:56:12;;;;;;;4.47;4.07;;;26.20;86.80;;;;;;4905048;29;20448;-85
2021/05/11 14:04:07;;;;;;;6.03;4.10;;;25.00;88.40;;;;;;4897533;29;20407;-85
2021/05/11 14:06:33;;;;;;;10.13;4.60;;;24.90;86.90;;;;;;4895296;29;20523;-85
2021/05/11 14:08:59;;;;;;;4.07;3.67;;;25.10;90.80;;;;;;4895857;29;20612;-85
2021/05/11 14:11:24;;;;;;;11.27;4.60;;;25.30;89.50;;;;;;4895759;29;20181;-85
2021/05/11 14:13:50;;;;;;;7.23;3.77;;;25.90;89.40;;;;;;4895184;29;20180;-85
2021/05/11 14:16:16;;;;;;;8.60;4.00;;;26.30;86.60;;;;;;4897203;29;20223;-82
2021/05/11 14:18:42;;;;;;;7.17;4.57;;;26.00;85.70;;;;;;4896782;29;20436;-82
2021/05/11 14:21:07;;;;;;;7.63;4.87;;;25.90;88.60;;;;;;4898351;29;20212;-81
2021/05/11 14:23:33;;;;;;;7.20;4.10;;;26.00;88.00;;;;;;4899143;29;20173;-81
2021/05/11 14:26:00;;;;;;;13.13;4.13;;;25.60;86.50;;;;;;4911188;29;20251;-85
2021/05/11 14:28:25;;;;;;;7.43;4.13;;;25.30;86.90;;;;;;4915394;29;20483;-85
2021/05/11 14:30:51;;;;;;;5.80;3.57;;;25.40;88.00;;;;;;4915674;29;20466;-85
2021/05/11 14:33:16;;;;;;;18.27;4.27;;;25.50;86.50;;;;;;4916630;29;20184;-84
2021/05/11 14:35:42;;;;;;;14.93;5.53;;;25.30;88.30;;;;;;4915540;29;20204;-84
2021/05/11 14:38:08;;;;;;;22.37;12.17;;;25.00;87.90;;;;;;4916190;29;20584;-84
2021/05/11 14:40:33;;;;;;;5.20;4.40;;;24.80;90.30;;;;;;4917350;29;20212;-84
2021/05/11 14:42:59;;;;;;;6.40;4.23;;;24.50;91.80;;;;;;4917993;29;20177;-84
2021/05/11 14:45:26;;;;;;;6.73;4.70;;;24.10;91.10;;;;;;4917638;29;20196;-84
2021/05/11 14:47:52;;;;;;;11.67;5.40;;;23.90;92.60;;;;;;4915885;29;20212;-84
2021/05/11 14:50:21;;;;;;;7.50;5.03;;;23.70;93.60;;;;;;4916383;29;20455;-83
2021/05/11 14:52:50;;;;;;;6.73;6.00;;;23.60;94.10;;;;;;4920120;29;20420;-84
2021/05/11 14:55:18;;;;;;;11.80;6.27;;;23.40;95.20;;;;;;4919792;29;20459;-85
2021/05/11 14:57:44;;;;;;;6.30;5.80;;;23.20;95.30;;;;;;4920412;29;20800;-84
2021/05/11 15:00:10;;;;;;;11.60;6.60;;;23.20;95.90;;;;;;4920993;29;20435;-85
2021/05/11 15:02:36;;;;;;;7.90;5.97;;;23.30;96.30;;;;;;4919931;29;20184;-84
2021/05/11 15:05:02;;;;;;;10.03;6.30;;;23.50;95.30;;;;;;4916160;29;20425;-83
2021/05/11 15:07:28;;;;;;;10.50;6.77;;;23.30;95.00;;;;;;4901852;29;20181;-85
2021/05/11 15:09:53;;;;;;;8.20;6.47;;;22.90;96.30;;;;;;4902049;29;20417;-84
2021/05/11 15:12:19;;;;;;;6.77;5.80;;;22.70;96.30;;;;;;4900878;29;20657;-84
2021/05/11 15:14:45;;;;;;;10.40;6.17;;;22.40;96.30;;;;;;4901463;29;20236;-84
2021/05/11 15:19:53;;;;;;;8.50;5.80;;;22.10;96.30;;;;;;4901715;29;20793;-85
2021/05/11 15:22:22;;;;;;;7.30;5.10;;;22.20;96.30;;;;;;4901307;29;20449;-85
2021/05/11 15:24:49;;;;;;;15.50;6.77;;;22.30;96.30;;;;;;4900654;29;20499;-83
2021/05/11 15:27:15;;;;;;;8.83;6.17;;;22.30;95.90;;;;;;4901098;29;20428;-84
2021/05/11 15:29:41;;;;;;;25.30;13.17;;;22.20;96.30;;;;;;4900277;29;20444;-84
2021/05/11 15:33:06;;;;;;;9.87;6.43;;;21.90;96.30;;;;;;4902239;29;20894;-81
2021/05/11 15:35:33;;;;;;;8.27;6.90;;;21.90;96.30;;;;;;4902322;29;20228;-83
2021/05/11 15:38:02;;;;;;;9.87;6.40;;;21.80;96.30;;;;;;4902700;29;20794;-84
2021/05/11 15:40:31;;;;;;;13.17;6.77;;;21.70;96.30;;;;;;4902109;29;20832;-84
2021/05/11 15:42:57;;;;;;;11.43;6.00;;;21.50;96.30;;;;;;4901690;29;20417;-84
2021/05/11 15:45:25;;;;;;;19.93;5.90;;;21.40;96.30;;;;;;4901887;29;20477;-84
2021/05/11 15:47:53;;;;;;;11.20;5.40;;;21.40;96.30;;;;;;4902914;29;20778;-84
2021/05/11 15:50:33;;;;;;;11.03;6.00;;;21.30;96.30;;;;;;4920316;29;20444;-84
2021/05/11 15:53:01;;;;;;;6.07;5.03;;;21.20;96.30;;;;;;4920343;29;20404;-83
2021/05/11 15:55:28;;;;;;;8.03;5.10;;;21.00;96.30;;;;;;4919535;29;20527;-83
2021/05/11 15:57:53;;;;;;;8.80;5.40;;;21.00;96.30;;;;;;4906076;29;20430;-85
2021/05/11 16:00:19;;;;;;;11.50;6.00;;;20.90;96.30;;;;;;4901505;29;20520;-84
2021/05/11 16:02:45;;;;;;;5.93;4.77;;;20.80;96.30;;;;;;4915734;29;20180;-84
2021/05/11 16:05:12;;;;;;;8.53;6.00;;;20.50;96.30;;;;;;4901853;29;20954;-83
2021/05/11 16:07:38;;;;;;;11.37;6.60;;;20.20;96.30;;;;;;4900836;29;20418;-84
2021/05/11 16:10:07;;;;;;;10.60;6.40;;;20.00;96.30;;;;;;4900012;29;20413;-83
2021/05/11 16:12:32;;;;;;;14.80;7.07;;;19.80;96.30;;;;;;4901069;29;20416;-84
2021/05/11 16:15:00;;;;;;;11.30;6.70;;;19.70;96.30;;;;;;4915452;29;20417;-84
2021/05/11 16:17:26;;;;;;;11.50;6.90;;;;;;;;;;4899880;29;20157;-84
2021/05/11 16:19:52;;;;;;;12.90;7.17;;;;;;;;;;4916960;29;20420;-84
2021/05/11 16:22:18;;;;;;;11.60;7.07;;;19.30;96.30;;;;;;4901126;29;20208;-83
2021/05/11 16:24:46;;;;;;;8.37;6.80;;;19.10;96.30;;;;;;4902196;29;20228;-84
2021/05/11 16:27:12;;;;;;;19.37;7.60;;;;;;;;;;4904954;29;20192;-83
2021/05/11 16:29:38;;;;;;;12.47;7.93;;;;;;;;;;4923879;29;20429;-83
2021/05/11 16:32:05;;;;;;;12.97;8.03;;;18.10;96.30;;;;;;4920202;29;20180;-82
2021/05/11 16:34:31;;;;;;;12.27;8.03;;;17.80;96.30;;;;;;4906601;29;20180;-82
2021/05/11 16:37:01;;;;;;;15.03;8.70;;;;;;;;;;4914907;29;20445;-81
2021/05/11 16:39:27;;;;;;;12.43;8.50;;;17.60;96.30;;;;;;4905142;29;20464;-81
2021/05/11 16:41:52;;;;;;;10.67;9.60;;;17.40;96.30;;;;;;4902659;29;20520;-81
2021/05/11 16:44:17;;;;;;;11.77;9.83;;;17.20;96.30;;;;;;4906341;29;20199;-81
2021/05/11 16:46:43;;;;;;;11.07;9.20;;;17.10;96.30;;;;;;4913129;29;20215;-81
2021/05/11 16:49:09;;;;;;;13.60;11.60;;;16.90;96.30;;;;;;4903223;29;20838;-81
2021/05/11 16:51:35;;;;;;;20.80;10.30;;;;;;;;;;4898462;29;20191;-81
2021/05/11 16:54:01;;;;;;;8.20;7.40;;;16.60;96.30;;;;;;4900559;29;20444;-81
2021/05/11 16:56:26;;;;;;;6.47;4.90;;;16.30;96.30;;;;;;4911351;29;20452;-80
2021/05/11 16:58:52;;;;;;;6.57;4.97;;;16.10;96.30;;;;;;4910685;29;20188;-81
2021/05/11 17:01:17;;;;;;;6.00;5.33;;;16.00;96.30;;;;;;4899990;29;20256;-82
2021/05/11 17:03:43;;;;;;;7.30;5.00;;;15.80;96.30;;;;;;4900706;29;20181;-81
2021/05/11 17:06:08;;;;;;;7.20;6.07;;;15.80;96.30;;;;;;4900351;29;20192;-82
2021/05/11 17:08:34;;;;;;;7.80;6.13;;;15.70;96.30;;;;;;4913792;29;20192;-80
2021/05/11 17:11:00;;;;;;;7.77;6.93;;;15.70;96.30;;;;;;4919690;29;20250;-80
2021/05/11 17:13:25;;;;;;;7.10;6.40;;;15.70;96.30;;;;;;4905053;29;20185;-85
2021/05/11 17:15:53;;;;;;;6.60;5.57;;;15.70;96.30;;;;;;4900018;29;20224;-82
2021/05/11 17:18:19;;;;;;;9.07;6.27;;;15.70;96.30;;;;;;4899598;29;20177;-82
2021/05/11 17:20:45;;;;;;;5.27;4.20;;;15.60;96.30;;;;;;4900180;29;20880;-82
2021/05/11 17:23:11;;;;;;;4.70;3.73;;;15.60;96.30;;;;;;4914102;29;20484;-82
2021/05/11 17:25:36;;;;;;;4.13;3.47;;;15.50;96.30;;;;;;4917061;29;20858;-80
2021/05/11 17:28:03;;;;;;;10.50;3.77;;;15.40;96.30;;;;;;4903825;29;20181;-80
2021/05/11 17:30:29;;;;;;;4.60;4.20;;;15.30;96.30;;;;;;4903198;29;20176;-80
2021/05/11 17:32:55;;;;;;;11.40;3.87;;;15.20;96.30;;;;;;4908417;29;20440;-80
2021/05/11 17:35:22;;;;;;;4.70;2.73;;;15.10;96.30;;;;;;4903666;29;20863;-81
2021/05/11 17:37:49;;;;;;;4.50;3.10;;;15.00;96.30;;;;;;4915801;29;20421;-81
2021/05/11 17:40:19;;;;;;;5.47;3.30;;;15.00;96.30;;;;;;4899318;29;20433;-81
2021/05/11 17:42:45;;;;;;;3.47;2.67;;;;;;;;;;4911757;29;20439;-81
2021/05/11 17:45:13;;;;;;;4.60;3.10;;;15.00;96.30;;;;;;4923758;29;20444;-82
2021/05/11 17:47:38;;;;;;;4.30;3.73;;;15.00;96.30;;;;;;4910603;29;20429;-82
2021/05/11 17:50:05;;;;;;;4.83;3.90;;;15.00;96.30;;;;;;4916295;29;20490;-82
2021/05/11 17:52:31;;;;;;;4.10;3.30;;;14.90;96.30;;;;;;4899408;29;20203;-81
2021/05/11 17:54:56;;;;;;;5.23;4.73;;;14.80;96.30;;;;;;4918017;29;20421;-81
2021/05/11 17:57:22;;;;;;;5.93;4.80;;;14.80;96.30;;;;;;4916865;29;20191;-80
2021/05/11 17:59:48;;;;;;;5.83;5.30;;;14.80;96.30;;;;;;4918033;29;20190;-80
2021/05/11 18:02:14;;;;;;;9.33;6.47;;;14.70;96.30;;;;;;4916612;29;20219;-80
2021/05/11 18:04:40;;;;;;;7.30;6.47;;;14.80;96.30;;;;;;4916717;29;20187;-80
2021/05/11 18:07:06;;;;;;;13.03;8.30;;;14.80;96.30;;;;;;4898969;29;20575;-80
2021/05/11 18:09:35;;;;;;;9.03;8.10;;;14.80;96.30;;;;;;4897392;29;20510;-80
2021/05/11 18:12:01;;;;;;;12.17;10.93;;;14.80;96.30;;;;;;4896249;29;20192;-79
2021/05/11 18:14:26;;;;;;;14.13;11.57;;;14.80;96.30;;;;;;4910447;29;20432;-79
2021/05/11 18:16:52;;;;;;;13.60;12.20;;;14.80;96.30;;;;;;4912939;29;20267;-79
2021/05/11 18:19:17;;;;;;;13.40;12.10;;;14.70;96.30;;;;;;4896374;29;20586;-79
2021/05/11 18:21:43;;;;;;;14.23;12.67;;;14.70;96.30;;;;;;4896881;29;20209;-79
2021/05/11 18:24:09;;;;;;;15.40;14.00;;;14.80;96.30;;;;;;4915144;29;20194;-79
2021/05/11 18:26:34;;;;;;;16.07;14.37;;;14.80;96.30;;;;;;4916702;29;20196;-79
2021/05/11 18:29:00;;;;;;;16.50;14.87;;;14.80;96.30;;;;;;4919092;29;20176;-79
2021/05/11 18:31:26;;;;;;;16.57;15.00;;;14.80;96.30;;;;;;4919072;29;20191;-79
2021/05/11 18:33:51;;;;;;;18.23;16.40;;;14.80;96.30;;;;;;4918286;29;20231;-80
2021/05/11 18:36:25;;;;;;;20.60;16.83;;;14.80;96.30;;;;;;4918190;29;20665;-79
2021/05/11 18:38:57;;;;;;;24.13;18.50;;;14.80;96.30;;;;;;4901323;29;20185;-79
2021/05/11 18:41:22;;;;;;;20.97;19.07;;;14.80;96.30;;;;;;4913504;29;20471;-79
2021/05/11 18:43:48;;;;;;;21.50;19.57;;;14.70;96.30;;;;;;4901869;29;20433;-79
2021/05/11 18:46:14;;;;;;;21.50;19.60;;;;;;;;;;4898389;29;20332;-79
2021/05/11 18:48:39;;;;;;;21.70;19.43;;;14.70;96.30;;;;;;4916313;29;20180;-83
2021/05/11 18:51:05;;;;;;;21.23;19.17;;;14.70;96.30;;;;;;4919460;29;20188;-81
2021/05/11 18:53:31;;;;;;;23.10;20.70;;;14.70;96.30;;;;;;4919911;29;20320;-81
2021/05/11 18:55:57;;;;;;;22.47;20.07;;;14.70;96.30;;;;;;4920485;29;20662;-81
2021/05/11 18:58:23;;;;;;;20.47;18.50;;;14.70;96.30;;;;;;4918807;29;20180;-81
2021/05/11 19:00:48;;;;;;;19.73;17.80;;;14.70;96.30;;;;;;4900927;29;20476;-81
2021/05/11 19:03:14;;;;;;;20.73;18.70;;;14.70;96.30;;;;;;4901552;29;20189;-80
2021/05/11 19:05:40;;;;;;;20.07;18.37;;;14.70;96.30;;;;;;4901198;29;20299;-81
2021/05/11 19:08:05;;;;;;;20.63;16.83;;;14.60;96.30;;;;;;4911799;29;20603;-80
2021/05/11 19:10:31;;;;;;;19.37;16.73;;;14.60;96.30;;;;;;4918118;29;20188;-81
2021/05/11 19:12:58;;;;;;;17.10;15.30;;;14.60;96.30;;;;;;4920034;29;20185;-81
2021/05/11 19:15:23;;;;;;;16.27;14.40;;;14.50;96.30;;;;;;4919373;29;20707;-81
2021/05/11 19:17:49;;;;;;;15.80;14.40;;;14.40;96.30;;;;;;4918902;29;20423;-81
2021/05/11 19:20:16;;;;;;;14.93;13.27;;;14.40;96.30;;;;;;4919278;29;20180;-81
2021/05/11 19:22:41;;;;;;;15.23;13.83;;;14.40;96.30;;;;;;4918210;29;20266;-81
2021/05/11 19:25:08;;;;;;;17.40;15.90;;;14.40;96.30;;;;;;4919352;29;20464;-81
2021/05/11 19:27:38;;;;;;;16.53;14.83;;;14.40;96.30;;;;;;4918466;29;20172;-80
2021/05/11 19:30:06;;;;;;;16.53;15.03;;;14.40;96.30;;;;;;4919562;29;20403;-80
2021/05/11 19:32:32;;;;;;;16.73;15.13;;;14.40;96.30;;;;;;4919872;29;20405;-81
2021/05/11 19:34:57;;;;;;;15.70;14.10;;;14.30;96.30;;;;;;4904722;29;20449;-81
2021/05/11 19:37:23;;;;;;;16.40;14.90;;;14.30;96.30;;;;;;4900246;29;20169;-81
2021/05/11 19:39:48;;;;;;;19.00;15.10;;;14.30;96.30;;;;;;4904657;29;20642;-81
2021/05/11 19:42:14;;;;;;;16.77;14.90;;;14.30;96.30;;;;;;4905385;29;20200;-81
2021/05/11 19:44:41;;;;;;;17.97;14.73;;;14.30;96.30;;;;;;4917865;29;20176;-82
2021/05/11 19:47:06;;;;;;;17.63;16.03;;;14.40;96.30;;;;;;4915137;29;20197;-82
2021/05/11 19:49:32;;;;;;;24.83;14.93;;;14.40;96.30;;;;;;4900411;29;20445;-81
2021/05/11 19:51:58;;;;;;;19.40;17.30;;;14.40;96.30;;;;;;4905677;29;20181;-81
2021/05/11 19:54:28;;;;;;;16.80;15.13;;;14.30;96.30;;;;;;4913085;29;20790;-81